createdAt,value
2023-04-05T00:00:44.591Z,0.70
2023-04-05T00:01:50.264Z,0.60
2023-04-05T00:02:53.047Z,0.60
2023-04-05T00:03:57.661Z,0.60
2023-04-05T00:05:00.688Z,0.60
2023-04-05T00:06:05.471Z,0.50
2023-04-05T00:07:08.484Z,0.50
2023-04-05T00:08:13.611Z,0.50
2023-04-05T00:09:16.219Z,0.40
2023-04-05T00:10:18.522Z,0.40
2023-04-05T00:11:21.183Z,0.40
2023-04-05T00:12:23.630Z,0.40
2023-04-05T00:13:26.125Z,0.40
2023-04-05T00:14:28.523Z,0.30
2023-04-05T00:15:33.602Z,0.40
2023-04-05T00:16:36.529Z,0.30
2023-04-05T00:17:39.012Z,0.30
2023-04-05T00:18:49.788Z,0.30
2023-04-05T00:19:57.396Z,0.30
2023-04-05T00:21:00.319Z,0.30
2023-04-05T00:22:03.699Z,0.20
2023-04-05T00:23:06.984Z,0.20
2023-04-05T00:24:15.409Z,0.20
2023-04-05T00:25:18.666Z,0.20
2023-04-05T00:26:21.954Z,0.20
2023-04-05T00:27:28.948Z,0.20
2023-04-05T00:28:31.300Z,0.20
2023-04-05T00:29:34.233Z,0.20
2023-04-05T00:30:38.682Z,0.20
2023-04-05T00:31:41.289Z,0.20
2023-04-05T00:32:43.610Z,0.20
2023-04-05T00:33:46.853Z,0.20
2023-04-05T00:34:50.134Z,0.20
2023-04-05T00:35:52.499Z,0.20
2023-04-05T00:36:54.839Z,0.20
2023-04-05T00:37:57.513Z,0.10
2023-04-05T00:38:59.829Z,0.10
2023-04-05T00:40:02.168Z,0.10
2023-04-05T00:41:04.738Z,0.10
2023-04-05T00:42:07.615Z,0.10
2023-04-05T00:43:09.918Z,0.10
2023-04-05T00:44:12.990Z,0.10
2023-04-05T00:45:15.559Z,0.00
2023-04-05T00:46:18.252Z,0.00
2023-04-05T00:47:20.707Z,0.00
2023-04-05T00:48:24.662Z,0.00
2023-04-05T00:49:27.220Z,0.00
2023-04-05T00:50:32.936Z,0.00
2023-04-05T00:51:36.650Z,0.00
2023-04-05T00:52:40.745Z,0.00
2023-04-05T00:53:44.952Z,-0.10
2023-04-05T00:54:47.701Z,-0.10
2023-04-05T00:55:51.879Z,-0.10
2023-04-05T00:56:56.480Z,-0.10
2023-04-05T00:57:59.553Z,-0.20
2023-04-05T00:59:02.161Z,-0.20
2023-04-05T01:00:09.575Z,-0.20
2023-04-05T01:01:20.499Z,-0.20
2023-04-05T01:02:34.510Z,-0.20
2023-04-05T01:03:38.872Z,-0.20
2023-04-05T01:04:50.269Z,-0.30
2023-04-05T01:06:06.339Z,-0.30
2023-04-05T01:07:26.518Z,-0.20
2023-04-05T01:08:40.669Z,-0.30
2023-04-05T01:09:52.801Z,-0.30
2023-04-05T01:11:00.208Z,-0.30
2023-04-05T01:12:09.248Z,-0.30
2023-04-05T01:13:11.620Z,-0.30
2023-04-05T01:14:14.453Z,-0.30
2023-04-05T01:15:18.905Z,-0.30
2023-04-05T01:16:21.295Z,-0.30
2023-04-05T01:17:28.480Z,-0.30
2023-04-05T01:18:31.174Z,-0.30
2023-04-05T01:19:35.200Z,-0.30
2023-04-05T01:20:46.298Z,-0.30
2023-04-05T01:22:22.091Z,-0.30
2023-04-05T01:23:45.893Z,-0.40
2023-04-05T01:25:22.783Z,-0.40
2023-04-05T01:26:41.213Z,-0.40
2023-04-05T01:28:27.511Z,-0.40
2023-04-05T01:29:51.226Z,-0.40
2023-04-05T01:31:41.113Z,-0.40
2023-04-05T01:33:22.105Z,-0.50
2023-04-05T01:34:53.962Z,-0.50
2023-04-05T01:36:02.887Z,-0.40
2023-04-05T01:37:12.408Z,-0.50
2023-04-05T01:38:22.330Z,-0.50
2023-04-05T01:39:26.643Z,-0.50
2023-04-05T01:40:31.925Z,-0.50
2023-04-05T01:41:34.710Z,-0.50
2023-04-05T01:42:37.442Z,-0.50
2023-04-05T01:43:39.818Z,-0.50
2023-04-05T01:44:42.155Z,-0.60
2023-04-05T01:45:45.859Z,-0.50
2023-04-05T01:46:48.274Z,-0.50
2023-04-05T01:47:50.658Z,-0.50
2023-04-05T01:48:54.615Z,-0.50
2023-04-05T01:49:56.910Z,-0.50
2023-04-05T01:51:01.353Z,-0.50
2023-04-05T01:52:03.690Z,-0.50
2023-04-05T01:53:07.435Z,-0.50
2023-04-05T01:54:10.959Z,-0.50
2023-04-05T01:55:13.325Z,-0.50
2023-04-05T01:56:15.646Z,-0.50
2023-04-05T01:57:17.948Z,-0.50
2023-04-05T01:58:21.160Z,-0.50
2023-04-05T01:59:23.553Z,-0.50
2023-04-05T02:00:26.023Z,-0.50
2023-04-05T02:01:28.471Z,-0.50
2023-04-05T02:02:32.379Z,-0.50
2023-04-05T02:03:34.862Z,-0.50
2023-04-05T02:04:37.291Z,-0.50
2023-04-05T02:05:39.561Z,-0.50
2023-04-05T02:06:42.427Z,-0.60
2023-04-05T02:07:44.799Z,-0.60
2023-04-05T02:08:47.007Z,-0.60
2023-04-05T02:09:49.316Z,-0.60
2023-04-05T02:10:53.734Z,-0.60
2023-04-05T02:11:56.625Z,-0.60
2023-04-05T02:12:58.860Z,-0.60
2023-04-05T02:14:01.376Z,-0.70
2023-04-05T02:15:05.801Z,-0.70
2023-04-05T02:16:09.279Z,-0.70
2023-04-05T02:17:12.773Z,-0.70
2023-04-05T02:18:16.199Z,-0.70
2023-04-05T02:19:23.075Z,-0.70
2023-04-05T02:20:26.053Z,-0.70
2023-04-05T02:21:28.616Z,-0.80
2023-04-05T02:22:31.386Z,-0.80
2023-04-05T02:23:34.620Z,-0.80
2023-04-05T02:24:37.039Z,-0.80
2023-04-05T02:25:40.064Z,-0.80
2023-04-05T02:26:42.599Z,-0.80
2023-04-05T02:27:45.094Z,-0.60
2023-04-05T02:28:47.773Z,-0.80
2023-04-05T02:29:50.024Z,-0.80
2023-04-05T02:30:52.446Z,-0.80
2023-04-05T02:31:55.009Z,-0.80
2023-04-05T02:32:57.478Z,-0.80
2023-04-05T02:34:01.081Z,-0.80
2023-04-05T02:35:04.087Z,-0.80
2023-04-05T02:36:09.454Z,-0.80
2023-04-05T02:37:11.847Z,-0.80
2023-04-05T02:38:15.862Z,-0.90
2023-04-05T02:39:18.589Z,-0.90
2023-04-05T02:40:21.961Z,-0.90
2023-04-05T02:41:25.122Z,-0.90
2023-04-05T02:42:27.470Z,-0.90
2023-04-05T02:43:29.821Z,-0.90
2023-04-05T02:44:32.199Z,-0.90
2023-04-05T02:45:34.553Z,-0.90
2023-04-05T02:46:37.029Z,-0.90
2023-04-05T02:47:40.011Z,-0.90
2023-04-05T02:48:43.392Z,-0.90
2023-04-05T02:49:48.874Z,-1.00
2023-04-05T02:50:52.808Z,-1.00
2023-04-05T02:51:56.161Z,-1.00
2023-04-05T02:52:58.883Z,-1.00
2023-04-05T02:54:03.402Z,-1.00
2023-04-05T02:55:07.784Z,-1.00
2023-04-05T02:56:14.400Z,-1.10
2023-04-05T02:57:19.963Z,-1.10
2023-04-05T02:58:30.468Z,-1.10
2023-04-05T02:59:32.790Z,-1.10
2023-04-05T03:00:36.530Z,-1.10
2023-04-05T03:01:44.716Z,-1.10
2023-04-05T03:02:56.738Z,-1.10
2023-04-05T03:03:59.497Z,-1.10
2023-04-05T03:05:02.510Z,-1.00
2023-04-05T03:06:10.369Z,-1.10
2023-04-05T03:07:26.628Z,-1.00
2023-04-05T03:08:29.109Z,-1.00
2023-04-05T03:09:38.673Z,-1.00
2023-04-05T03:10:45.150Z,-1.00
2023-04-05T03:11:51.444Z,-1.00
2023-04-05T03:12:53.973Z,-1.00
2023-04-05T03:14:00.118Z,-1.00
2023-04-05T03:15:22.711Z,-1.00
2023-04-05T03:16:25.160Z,-0.90
2023-04-05T03:17:27.546Z,-1.00
2023-04-05T03:18:37.037Z,-1.00
2023-04-05T03:19:43.132Z,-1.00
2023-04-05T03:20:57.017Z,-1.00
2023-04-05T03:22:00.148Z,-1.00
2023-04-05T03:23:09.119Z,-1.00
2023-04-05T03:24:12.270Z,-1.00
2023-04-05T03:25:17.584Z,-1.00
2023-04-05T03:26:23.370Z,-1.00
2023-04-05T03:27:29.271Z,-1.00
2023-04-05T03:28:45.342Z,-1.10
2023-04-05T03:29:49.134Z,-1.10
2023-04-05T03:30:53.339Z,-1.10
2023-04-05T03:31:59.409Z,-1.10
2023-04-05T03:33:03.208Z,-1.00
2023-04-05T03:34:30.884Z,-1.00
2023-04-05T03:35:38.904Z,-1.00
2023-04-05T03:36:43.958Z,-1.00
2023-04-05T03:38:01.908Z,-1.00
2023-04-05T03:39:04.737Z,-0.90
2023-04-05T03:40:10.708Z,-0.90
2023-04-05T03:41:13.297Z,-0.90
2023-04-05T03:42:16.568Z,-0.80
2023-04-05T03:43:20.174Z,-0.80
2023-04-05T03:44:23.306Z,-0.80
2023-04-05T03:45:26.193Z,-0.70
2023-04-05T03:46:28.740Z,-0.70
2023-04-05T03:47:31.311Z,-0.70
2023-04-05T03:48:39.682Z,-0.70
2023-04-05T03:49:42.155Z,-0.60
2023-04-05T03:50:44.749Z,-0.60
2023-04-05T03:51:47.239Z,-0.60
2023-04-05T03:52:49.642Z,-0.60
2023-04-05T03:53:52.210Z,-0.60
2023-04-05T03:54:55.185Z,-0.60
2023-04-05T03:55:59.299Z,-0.60
2023-04-05T03:57:14.524Z,-0.60
2023-04-05T03:58:18.358Z,-0.60
2023-04-05T03:59:21.429Z,-0.50
2023-04-05T04:00:24.805Z,-0.50
2023-04-05T04:01:48.207Z,-0.50
2023-04-05T04:02:52.800Z,-0.50
2023-04-05T04:03:57.377Z,-0.40
2023-04-05T04:05:00.250Z,-0.40
2023-04-05T04:06:07.654Z,-0.30
2023-04-05T04:07:10.157Z,-0.30
2023-04-05T04:08:13.880Z,-0.30
2023-04-05T04:09:16.575Z,-0.30
2023-04-05T04:10:19.065Z,-0.20
2023-04-05T04:11:26.076Z,-0.20
2023-04-05T04:12:28.655Z,-0.20
2023-04-05T04:13:35.700Z,-0.20
2023-04-05T04:14:58.921Z,-0.20
2023-04-05T04:16:33.546Z,-0.10
2023-04-05T04:17:55.804Z,-0.20
2023-04-05T04:19:11.227Z,-0.10
2023-04-05T04:20:43.105Z,-0.10
2023-04-05T04:22:05.100Z,-0.20
2023-04-05T04:23:39.516Z,-0.10
2023-04-05T04:25:18.963Z,-0.10
2023-04-05T04:26:54.722Z,-0.10
2023-04-05T04:28:19.647Z,-0.10
2023-04-05T04:30:01.888Z,0.00
2023-04-05T04:31:13.799Z,0.00
2023-04-05T04:32:55.823Z,0.00
2023-04-05T04:34:06.810Z,0.00
2023-04-05T04:35:39.666Z,0.00
2023-04-05T04:37:01.272Z,0.20
2023-04-05T04:38:35.617Z,0.10
2023-04-05T04:40:04.335Z,0.10
2023-04-05T04:41:22.875Z,0.20
2023-04-05T04:42:48.809Z,0.20
2023-04-05T04:44:14.896Z,0.20
2023-04-05T04:45:39.986Z,0.20
2023-04-05T04:46:56.082Z,0.30
2023-04-05T04:48:19.839Z,0.30
2023-04-05T04:49:33.270Z,0.20
2023-04-05T04:50:36.090Z,0.20
2023-04-05T04:51:39.187Z,0.30
2023-04-05T04:52:41.982Z,0.30
2023-04-05T04:53:44.393Z,0.30
2023-04-05T04:54:47.423Z,0.30
2023-04-05T04:55:50.216Z,0.30
2023-04-05T04:56:52.537Z,0.20
2023-04-05T04:57:57.505Z,0.20
2023-04-05T04:59:00.105Z,0.20
2023-04-05T05:00:07.821Z,0.20
2023-04-05T05:01:10.810Z,0.20
2023-04-05T05:02:13.294Z,0.20
2023-04-05T05:03:16.676Z,0.20
2023-04-05T05:04:19.218Z,0.20
2023-04-05T05:05:22.898Z,0.10
2023-04-05T05:06:27.393Z,0.10
2023-04-05T05:07:30.445Z,0.10
2023-04-05T05:08:32.846Z,0.10
2023-04-05T05:09:35.221Z,0.10
2023-04-05T05:10:37.979Z,0.10
2023-04-05T05:11:40.488Z,0.10
2023-04-05T05:12:45.891Z,0.20
2023-04-05T05:13:53.189Z,0.10
2023-04-05T05:14:59.472Z,0.20
2023-04-05T05:16:04.688Z,0.20
2023-04-05T05:17:08.740Z,0.20
2023-04-05T05:18:12.606Z,0.20
2023-04-05T05:19:15.044Z,0.20
2023-04-05T05:20:22.488Z,0.20
2023-04-05T05:21:24.892Z,0.20
2023-04-05T05:22:31.566Z,0.20
2023-04-05T05:23:33.924Z,0.20
2023-04-05T05:24:37.761Z,0.20
2023-04-05T05:25:41.115Z,0.20
2023-04-05T05:26:43.543Z,0.20
2023-04-05T05:27:50.060Z,0.20
2023-04-05T05:28:52.814Z,0.20
2023-04-05T05:29:55.940Z,0.20
2023-04-05T05:30:58.766Z,0.20
2023-04-05T05:32:01.200Z,0.30
2023-04-05T05:33:04.374Z,0.20
2023-04-05T05:34:06.918Z,0.20
2023-04-05T05:35:10.787Z,0.30
2023-04-05T05:36:13.549Z,0.30
2023-04-05T05:37:17.388Z,0.30
2023-04-05T05:38:20.109Z,0.30
2023-04-05T05:39:23.643Z,0.30
2023-04-05T05:40:26.986Z,0.40
2023-04-05T05:41:29.448Z,0.40
2023-04-05T05:42:34.832Z,0.40
2023-04-05T05:43:37.342Z,0.40
2023-04-05T05:44:40.053Z,0.40
2023-04-05T05:45:42.595Z,0.40
2023-04-05T05:46:45.235Z,0.50
2023-04-05T05:47:48.179Z,0.50
2023-04-05T05:48:50.787Z,0.50
2023-04-05T05:49:53.310Z,0.50
2023-04-05T05:50:56.594Z,0.50
2023-04-05T05:51:59.158Z,0.50
2023-04-05T05:53:01.994Z,0.50
2023-04-05T05:54:04.651Z,0.50
2023-04-05T05:55:07.594Z,0.50
2023-04-05T05:56:10.217Z,0.60
2023-04-05T05:57:13.157Z,0.70
2023-04-05T05:58:15.998Z,0.60
2023-04-05T05:59:18.340Z,0.60
2023-04-05T06:00:21.614Z,0.70
2023-04-05T06:01:28.425Z,0.70
2023-04-05T06:02:33.385Z,0.70
2023-04-05T06:03:38.055Z,0.70
2023-04-05T06:04:44.074Z,0.80
2023-04-05T06:05:57.036Z,0.80
2023-04-05T06:06:59.681Z,0.90
2023-04-05T06:08:04.013Z,0.90
2023-04-05T06:09:06.576Z,0.90
2023-04-05T06:10:09.506Z,0.90
2023-04-05T06:11:21.917Z,1.00
2023-04-05T06:12:25.282Z,1.00
2023-04-05T06:13:28.411Z,1.00
2023-04-05T06:14:31.289Z,1.00
2023-04-05T06:15:33.620Z,1.10
2023-04-05T06:16:36.103Z,1.10
2023-04-05T06:17:42.453Z,1.10
2023-04-05T06:18:45.073Z,1.20
2023-04-05T06:19:47.385Z,1.20
2023-04-05T06:20:49.659Z,1.20
2023-04-05T06:21:52.057Z,1.20
2023-04-05T06:22:54.536Z,1.30
2023-04-05T06:23:57.009Z,1.30
2023-04-05T06:24:59.463Z,1.40
2023-04-05T06:26:01.839Z,1.40
2023-04-05T06:27:04.490Z,1.40
2023-04-05T06:28:07.957Z,1.50
2023-04-05T06:29:10.961Z,1.60
2023-04-05T06:30:14.163Z,1.80
2023-04-05T06:31:17.884Z,1.80
2023-04-05T06:32:20.825Z,1.90
2023-04-05T06:33:27.206Z,2.00
2023-04-05T06:34:29.907Z,2.10
2023-04-05T06:35:32.525Z,2.10
2023-04-05T06:36:35.141Z,2.20
2023-04-05T06:37:37.789Z,2.30
2023-04-05T06:38:40.112Z,2.30
2023-04-05T06:39:42.557Z,2.30
2023-04-05T06:40:45.018Z,2.40
2023-04-05T06:41:47.286Z,2.40
2023-04-05T06:42:49.739Z,2.50
2023-04-05T06:43:57.323Z,2.50
2023-04-05T06:44:59.637Z,2.60
2023-04-05T06:46:02.028Z,2.60
2023-04-05T06:47:05.023Z,2.70
2023-04-05T06:48:08.866Z,2.80
2023-04-05T06:49:11.353Z,2.80
2023-04-05T06:50:13.919Z,2.90
2023-04-05T06:51:17.527Z,3.00
2023-04-05T06:52:20.041Z,3.10
2023-04-05T06:53:22.560Z,3.20
2023-04-05T06:54:25.117Z,3.30
2023-04-05T06:55:27.929Z,3.50
2023-04-05T06:56:30.695Z,3.60
2023-04-05T06:57:33.880Z,3.70
2023-04-05T06:58:36.907Z,3.80
2023-04-05T06:59:39.327Z,3.90
2023-04-05T07:00:41.897Z,3.90
2023-04-05T07:01:46.926Z,4.10
2023-04-05T07:02:49.471Z,4.10
2023-04-05T07:03:51.899Z,4.20
2023-04-05T07:05:00.686Z,4.30
2023-04-05T07:06:03.189Z,4.30
2023-04-05T07:07:06.690Z,4.40
2023-04-05T07:08:09.346Z,4.50
2023-04-05T07:09:12.202Z,4.60
2023-04-05T07:10:14.721Z,4.70
2023-04-05T07:11:17.077Z,4.70
2023-04-05T07:12:19.339Z,4.80
2023-04-05T07:13:23.978Z,4.90
2023-04-05T07:14:26.954Z,5.00
2023-04-05T07:15:29.213Z,5.00
2023-04-05T07:16:31.894Z,5.10
2023-04-05T07:17:34.421Z,5.20
2023-04-05T07:18:36.791Z,5.30
2023-04-05T07:19:39.725Z,5.30
2023-04-05T07:20:42.155Z,5.40
2023-04-05T07:21:44.710Z,5.50
2023-04-05T07:22:47.262Z,5.50
2023-04-05T07:23:49.972Z,5.60
2023-04-05T07:24:53.456Z,5.70
2023-04-05T07:26:04.479Z,5.70
2023-04-05T07:27:06.950Z,5.80
2023-04-05T07:28:09.248Z,5.80
2023-04-05T07:29:13.437Z,5.70
2023-04-05T07:30:16.266Z,5.70
2023-04-05T07:31:18.679Z,5.70
2023-04-05T07:32:21.240Z,5.60
2023-04-05T07:33:23.576Z,5.60
2023-04-05T07:34:27.324Z,5.50
2023-04-05T07:35:29.837Z,5.40
2023-04-05T07:36:32.612Z,5.40
2023-04-05T07:37:34.963Z,5.30
2023-04-05T07:38:37.334Z,5.30
2023-04-05T07:39:39.922Z,5.30
2023-04-05T07:40:42.378Z,5.30
2023-04-05T07:41:44.743Z,5.30
2023-04-05T07:42:47.131Z,5.20
2023-04-05T07:43:50.041Z,5.30
2023-04-05T07:44:52.391Z,5.30
2023-04-05T07:46:02.480Z,5.30
2023-04-05T07:47:04.847Z,5.30
2023-04-05T07:48:07.498Z,5.40
2023-04-05T07:49:10.400Z,5.40
2023-04-05T07:50:15.639Z,5.50
2023-04-05T07:51:17.951Z,5.50
2023-04-05T07:52:20.553Z,5.50
2023-04-05T07:53:22.927Z,5.60
2023-04-05T07:54:25.232Z,5.70
2023-04-05T07:55:28.092Z,5.70
2023-04-05T07:56:30.885Z,5.80
2023-04-05T07:57:33.139Z,5.90
2023-04-05T07:58:36.083Z,5.90
2023-04-05T07:59:38.592Z,6.00
2023-04-05T08:00:41.675Z,6.10
2023-04-05T08:01:44.475Z,6.10
2023-04-05T08:02:46.946Z,6.20
2023-04-05T08:03:50.184Z,6.30
2023-04-05T08:04:52.719Z,6.40
2023-04-05T08:05:55.661Z,6.40
2023-04-05T08:06:57.981Z,6.50
2023-04-05T08:08:00.546Z,6.60
2023-04-05T08:09:06.098Z,6.60
2023-04-05T08:10:08.974Z,6.60
2023-04-05T08:11:11.423Z,6.60
2023-04-05T08:12:13.677Z,6.70
2023-04-05T08:13:16.203Z,6.70
2023-04-05T08:14:18.915Z,6.60
2023-04-05T08:15:21.330Z,6.60
2023-04-05T08:16:23.843Z,6.60
2023-04-05T08:17:28.357Z,6.70
2023-04-05T08:18:30.941Z,6.60
2023-04-05T08:19:33.309Z,6.50
2023-04-05T08:20:39.667Z,6.50
2023-04-05T08:21:42.326Z,6.50
2023-04-05T08:22:44.709Z,6.60
2023-04-05T08:23:47.194Z,6.50
2023-04-05T08:24:49.629Z,6.60
2023-04-05T08:25:52.675Z,6.60
2023-04-05T08:26:55.096Z,6.60
2023-04-05T08:27:57.655Z,6.60
2023-04-05T08:28:59.926Z,6.70
2023-04-05T08:30:02.447Z,6.80
2023-04-05T08:31:04.805Z,6.80
2023-04-05T08:32:07.554Z,6.90
2023-04-05T08:33:09.998Z,7.00
2023-04-05T08:34:12.817Z,7.10
2023-04-05T08:35:16.346Z,7.20
2023-04-05T08:36:18.612Z,7.30
2023-04-05T08:37:21.261Z,7.40
2023-04-05T08:38:23.981Z,7.40
2023-04-05T08:39:27.029Z,7.50
2023-04-05T08:40:50.016Z,7.60
2023-04-05T08:42:05.182Z,7.60
2023-04-05T08:43:42.917Z,7.60
2023-04-05T08:44:46.965Z,7.70
2023-04-05T08:45:51.465Z,7.80
2023-04-05T08:46:56.763Z,7.80
2023-04-05T08:47:59.152Z,7.90
2023-04-05T08:49:08.832Z,8.00
2023-04-05T08:50:13.633Z,8.00
2023-04-05T08:51:22.629Z,8.10
2023-04-05T08:52:26.025Z,8.10
2023-04-05T08:53:28.547Z,8.10
2023-04-05T08:54:30.912Z,8.10
2023-04-05T08:55:34.178Z,8.20
2023-04-05T08:56:37.358Z,8.20
2023-04-05T08:57:44.409Z,8.20
2023-04-05T08:58:53.462Z,8.20
2023-04-05T08:59:58.329Z,8.20
2023-04-05T09:01:01.892Z,8.20
2023-04-05T09:02:16.436Z,8.10
2023-04-05T09:03:23.149Z,8.00
2023-04-05T09:04:35.422Z,7.90
2023-04-05T09:05:41.137Z,7.80
2023-04-05T09:06:45.521Z,7.70
2023-04-05T09:07:48.292Z,7.60
2023-04-05T09:08:50.721Z,7.50
2023-04-05T09:09:54.691Z,7.50
2023-04-05T09:10:58.348Z,7.40
2023-04-05T09:12:01.488Z,7.40
2023-04-05T09:13:04.185Z,7.40
2023-04-05T09:14:07.217Z,7.40
2023-04-05T09:15:09.958Z,7.30
2023-04-05T09:16:14.938Z,7.30
2023-04-05T09:17:20.937Z,7.30
2023-04-05T09:18:27.301Z,7.30
2023-04-05T09:19:30.353Z,7.30
2023-04-05T09:20:32.633Z,7.30
2023-04-05T09:22:07.140Z,7.30
2023-04-05T09:23:12.623Z,7.20
2023-04-05T09:24:14.924Z,7.10
2023-04-05T09:25:32.507Z,7.20
2023-04-05T09:26:34.800Z,7.20
2023-04-05T09:27:55.866Z,7.20
2023-04-05T09:28:58.133Z,7.10
2023-04-05T09:30:00.516Z,7.10
2023-04-05T09:31:04.116Z,7.10
2023-04-05T09:32:07.828Z,7.20
2023-04-05T09:33:10.896Z,7.20
2023-04-05T09:34:22.005Z,7.20
2023-04-05T09:35:29.675Z,7.20
2023-04-05T09:36:35.821Z,7.30
2023-04-05T09:37:53.302Z,7.30
2023-04-05T09:39:08.529Z,7.30
2023-04-05T09:40:14.558Z,7.30
2023-04-05T09:41:17.065Z,7.30
2023-04-05T09:42:23.232Z,7.40
2023-04-05T09:43:42.321Z,7.40
2023-04-05T09:44:50.838Z,7.40
2023-04-05T09:45:53.110Z,7.50
2023-04-05T09:46:55.489Z,7.50
2023-04-05T09:47:58.357Z,7.50
2023-04-05T09:49:01.798Z,7.60
2023-04-05T09:50:16.109Z,7.60
2023-04-05T09:51:19.059Z,7.60
2023-04-05T09:52:26.058Z,7.70
2023-04-05T09:53:29.676Z,7.70
2023-04-05T09:54:42.171Z,7.80
2023-04-05T09:55:44.853Z,7.70
2023-04-05T09:56:57.624Z,7.80
2023-04-05T09:58:01.282Z,7.80
2023-04-05T09:59:08.412Z,7.90
2023-04-05T10:00:21.882Z,8.00
2023-04-05T10:01:28.794Z,8.00
2023-04-05T10:02:40.606Z,8.10
2023-04-05T10:03:50.053Z,8.20
2023-04-05T10:04:54.330Z,8.20
2023-04-05T10:05:56.879Z,8.30
2023-04-05T10:06:59.522Z,8.30
2023-04-05T10:08:02.426Z,8.30
2023-04-05T10:09:06.313Z,8.30
2023-04-05T10:10:13.732Z,8.30
2023-04-05T10:11:18.634Z,8.30
2023-04-05T10:12:28.431Z,8.30
2023-04-05T10:13:31.355Z,8.30
2023-04-05T10:14:33.679Z,8.30
2023-04-05T10:15:36.137Z,8.30
2023-04-05T10:17:04.434Z,8.30
2023-04-05T10:18:14.991Z,8.30
2023-04-05T10:19:43.772Z,8.20
2023-04-05T10:20:51.058Z,8.20
2023-04-05T10:21:54.902Z,8.20
2023-04-05T10:23:25.146Z,8.20
2023-04-05T10:24:59.821Z,8.20
2023-04-05T10:26:14.355Z,8.30
2023-04-05T10:27:47.529Z,8.30
2023-04-05T10:28:56.887Z,8.40
2023-04-05T10:30:09.366Z,8.50
2023-04-05T10:31:46.354Z,8.50
2023-04-05T10:33:00.534Z,8.60
2023-04-05T10:34:08.177Z,8.70
2023-04-05T10:35:17.385Z,8.70
2023-04-05T10:36:51.128Z,8.60
2023-04-05T10:38:10.907Z,8.60
2023-04-05T10:39:28.850Z,8.60
2023-04-05T10:40:33.389Z,8.60
2023-04-05T10:41:42.146Z,8.70
2023-04-05T10:42:46.622Z,8.70
2023-04-05T10:43:51.853Z,8.80
2023-04-05T10:45:04.703Z,8.80
2023-04-05T10:46:08.659Z,8.90
2023-04-05T10:47:17.421Z,9.00
2023-04-05T10:48:34.226Z,9.10
2023-04-05T10:49:49.421Z,9.20
2023-04-05T10:50:52.042Z,9.30
2023-04-05T10:51:55.826Z,9.40
2023-04-05T10:52:59.688Z,9.40
2023-04-05T10:54:02.599Z,9.40
2023-04-05T10:55:06.007Z,9.50
2023-04-05T10:56:09.166Z,9.50
2023-04-05T10:57:12.654Z,9.60
2023-04-05T10:58:16.227Z,9.70
2023-04-05T10:59:19.014Z,9.80
2023-04-05T11:00:23.469Z,9.90
2023-04-05T11:01:26.157Z,10.00
2023-04-05T11:02:29.959Z,10.10
2023-04-05T11:03:45.387Z,10.10
2023-04-05T11:04:56.183Z,10.30
2023-04-05T11:06:30.554Z,10.30
2023-04-05T11:07:47.167Z,10.30
2023-04-05T11:08:54.228Z,10.30
2023-04-05T11:10:01.343Z,10.30
2023-04-05T11:11:04.560Z,10.40
2023-04-05T11:12:07.062Z,10.40
2023-04-05T11:13:10.921Z,10.40
2023-04-05T11:14:35.379Z,10.40
2023-04-05T11:15:38.313Z,10.50
2023-04-05T11:16:41.272Z,10.60
2023-04-05T11:17:43.622Z,10.60
2023-04-05T11:18:52.246Z,10.60
2023-04-05T11:20:05.334Z,10.60
2023-04-05T11:21:09.128Z,10.60
2023-04-05T11:22:13.081Z,10.60
2023-04-05T11:23:18.871Z,10.70
2023-04-05T11:24:21.362Z,10.70
2023-04-05T11:25:25.269Z,10.70
2023-04-05T11:26:46.116Z,10.80
2023-04-05T11:28:00.930Z,10.80
2023-04-05T11:29:03.616Z,10.70
2023-04-05T11:30:06.889Z,10.70
2023-04-05T11:31:20.509Z,10.70
2023-04-05T11:32:23.770Z,10.70
2023-04-05T11:33:39.192Z,10.70
2023-04-05T11:34:45.148Z,10.70
2023-04-05T11:36:02.775Z,10.60
2023-04-05T11:37:05.238Z,10.70
2023-04-05T11:38:10.359Z,10.60
2023-04-05T11:39:19.117Z,10.60
2023-04-05T11:40:35.913Z,10.70
2023-04-05T11:41:39.171Z,10.70
2023-04-05T11:42:41.904Z,10.60
2023-04-05T11:43:47.949Z,10.60
2023-04-05T11:44:52.770Z,10.50
2023-04-05T11:45:55.353Z,10.50
2023-04-05T11:46:57.976Z,10.50
2023-04-05T11:48:04.787Z,10.60
2023-04-05T11:49:07.871Z,10.60
2023-04-05T11:50:11.576Z,10.60
2023-04-05T11:51:14.075Z,10.70
2023-04-05T11:52:18.548Z,10.80
2023-04-05T11:53:21.445Z,10.90
2023-04-05T11:54:31.189Z,10.90
2023-04-05T11:55:33.767Z,11.00
2023-04-05T11:56:36.323Z,11.00
2023-04-05T11:57:39.063Z,11.10
2023-04-05T11:58:41.900Z,11.10
2023-04-05T11:59:44.686Z,11.10
2023-04-05T12:00:57.042Z,11.20
2023-04-05T12:02:06.187Z,11.20
2023-04-05T12:03:15.468Z,11.20
2023-04-05T12:04:18.209Z,11.20
2023-04-05T12:05:20.620Z,11.00
2023-04-05T12:06:24.375Z,10.90
2023-04-05T12:07:37.029Z,10.90
2023-04-05T12:08:50.148Z,10.90
2023-04-05T12:10:04.410Z,10.90
2023-04-05T12:11:13.400Z,10.90
2023-04-05T12:12:18.628Z,11.00
2023-04-05T12:13:31.975Z,11.00
2023-04-05T12:14:34.246Z,11.00
2023-04-05T12:15:40.974Z,11.00
2023-04-05T12:16:50.419Z,11.00
2023-04-05T12:17:54.844Z,11.00
2023-04-05T12:19:00.993Z,11.00
2023-04-05T12:20:04.031Z,11.00
2023-04-05T12:21:09.232Z,11.00
2023-04-05T12:22:12.087Z,11.00
2023-04-05T12:23:14.797Z,11.10
2023-04-05T12:24:17.146Z,11.10
2023-04-05T12:25:20.607Z,11.20
2023-04-05T12:26:23.215Z,11.30
2023-04-05T12:27:25.627Z,11.40
2023-04-05T12:28:51.541Z,11.40
2023-04-05T12:30:10.156Z,11.50
2023-04-05T12:31:12.545Z,11.50
2023-04-05T12:32:15.805Z,11.60
2023-04-05T12:33:28.736Z,11.60
2023-04-05T12:34:31.082Z,11.60
2023-04-05T12:35:35.201Z,11.70
2023-04-05T12:36:38.914Z,11.70
2023-04-05T12:37:41.358Z,11.70
2023-04-05T12:38:43.640Z,11.60
2023-04-05T12:39:46.032Z,11.60
2023-04-05T12:40:49.197Z,11.60
2023-04-05T12:42:01.307Z,11.60
2023-04-05T12:43:08.736Z,11.50
2023-04-05T12:44:29.775Z,11.50
2023-04-05T12:45:40.288Z,11.40
2023-04-05T12:46:47.536Z,11.30
2023-04-05T12:47:52.731Z,11.20
2023-04-05T12:48:55.001Z,11.10
2023-04-05T12:49:57.354Z,11.00
2023-04-05T12:51:05.089Z,10.90
2023-04-05T12:52:07.906Z,10.80
2023-04-05T12:53:18.306Z,10.70
2023-04-05T12:54:24.741Z,10.80
2023-04-05T12:55:28.554Z,10.70
2023-04-05T12:56:32.550Z,10.70
2023-04-05T12:57:35.424Z,10.70
2023-04-05T12:58:38.885Z,10.60
2023-04-05T12:59:41.153Z,10.60
2023-04-05T13:00:44.093Z,10.60
2023-04-05T13:01:47.301Z,10.60
2023-04-05T13:02:51.816Z,10.60
2023-04-05T13:04:01.602Z,10.50
2023-04-05T13:05:11.169Z,10.50
2023-04-05T13:06:13.402Z,10.50
2023-04-05T13:07:15.806Z,10.50
2023-04-05T13:08:21.155Z,10.40
2023-04-05T13:09:23.420Z,10.30
2023-04-05T13:10:26.119Z,10.20
2023-04-05T13:11:28.501Z,10.20
2023-04-05T13:12:30.770Z,10.10
2023-04-05T13:13:34.575Z,10.00
2023-04-05T13:14:36.910Z,9.90
2023-04-05T13:15:39.836Z,9.80
2023-04-05T13:16:42.282Z,9.70
2023-04-05T13:17:45.576Z,9.60
2023-04-05T13:18:47.970Z,9.60
2023-04-05T13:19:50.527Z,9.50
2023-04-05T13:20:52.749Z,9.40
2023-04-05T13:21:55.180Z,9.40
2023-04-05T13:22:57.864Z,9.40
2023-04-05T13:24:00.337Z,9.40
2023-04-05T13:25:02.868Z,9.40
2023-04-05T13:26:06.423Z,9.30
2023-04-05T13:27:08.816Z,9.30
2023-04-05T13:28:11.602Z,9.30
2023-04-05T13:29:13.845Z,9.30
2023-04-05T13:30:16.688Z,9.40
2023-04-05T13:31:19.045Z,9.30
2023-04-05T13:32:21.488Z,9.30
2023-04-05T13:33:23.839Z,9.30
2023-04-05T13:34:26.290Z,9.30
2023-04-05T13:35:28.667Z,9.30
2023-04-05T13:36:31.490Z,9.30
2023-04-05T13:37:33.865Z,9.40
2023-04-05T13:38:36.599Z,9.40
2023-04-05T13:39:38.871Z,9.50
2023-04-05T13:40:41.599Z,9.50
2023-04-05T13:41:43.926Z,9.60
2023-04-05T13:42:46.197Z,9.70
2023-04-05T13:43:48.484Z,9.70
2023-04-05T13:44:52.150Z,9.80
2023-04-05T13:45:54.501Z,9.80
2023-04-05T13:46:56.882Z,9.90
2023-04-05T13:47:59.299Z,10.00
2023-04-05T13:49:01.574Z,10.10
2023-04-05T13:50:04.363Z,10.20
2023-04-05T13:51:06.900Z,10.30
2023-04-05T13:52:10.297Z,10.30
2023-04-05T13:53:12.597Z,10.40
2023-04-05T13:54:15.992Z,10.50
2023-04-05T13:55:19.006Z,10.50
2023-04-05T13:56:21.411Z,10.60
2023-04-05T13:57:23.796Z,10.60
2023-04-05T13:58:26.025Z,10.60
2023-04-05T13:59:28.406Z,10.60
2023-04-05T14:00:30.733Z,10.70
2023-04-05T14:01:36.431Z,10.70
2023-04-05T14:02:39.636Z,10.70
2023-04-05T14:03:42.249Z,10.70
2023-04-05T14:04:44.758Z,10.80
2023-04-05T14:05:49.819Z,10.80
2023-04-05T14:06:53.740Z,10.90
2023-04-05T14:07:56.135Z,11.00
2023-04-05T14:08:58.372Z,11.00
2023-04-05T14:10:00.881Z,11.10
2023-04-05T14:11:03.236Z,11.20
2023-04-05T14:12:06.422Z,11.20
2023-04-05T14:13:08.799Z,11.20
2023-04-05T14:14:11.093Z,11.20
2023-04-05T14:15:13.452Z,11.20
2023-04-05T14:16:15.977Z,11.30
2023-04-05T14:17:18.426Z,11.20
2023-04-05T14:18:20.776Z,11.20
2023-04-05T14:19:23.015Z,11.20
2023-04-05T14:20:25.738Z,11.10
2023-04-05T14:21:28.078Z,11.10
2023-04-05T14:22:30.479Z,11.10
2023-04-05T14:23:32.818Z,11.00
2023-04-05T14:24:35.071Z,11.00
2023-04-05T14:25:37.396Z,11.00
2023-04-05T14:26:40.140Z,11.00